sensor_id;sensor_type;location;lat;lon;timestamp;temperature;humidity
10282;DHT22;5186;59.472;18.048;2023-08-17T00:01:55;17.50;99.90
10282;DHT22;5186;59.472;18.048;2023-08-17T00:04:20;17.50;99.90
10282;DHT22;5186;59.472;18.048;2023-08-17T00:06:46;17.50;99.90
10282;DHT22;5186;59.472;18.048;2023-08-17T00:09:12;17.40;99.90
10282;DHT22;5186;59.472;18.048;2023-08-17T00:11:38;17.40;99.90
10282;DHT22;5186;59.472;18.048;2023-08-17T00:14:04;17.50;99.90
10282;DHT22;5186;59.472;18.048;2023-08-17T00:16:30;17.50;99.90
10282;DHT22;5186;59.472;18.048;2023-08-17T00:18:56;17.50;99.90
10282;DHT22;5186;59.472;18.048;2023-08-17T00:21:21;17.50;99.90
10282;DHT22;5186;59.472;18.048;2023-08-17T00:23:47;17.40;99.90
10282;DHT22;5186;59.472;18.048;2023-08-17T00:26:12;17.40;99.90
10282;DHT22;5186;59.472;18.048;2023-08-17T00:28:39;17.30;99.90
10282;DHT22;5186;59.472;18.048;2023-08-17T00:31:05;17.20;99.90
10282;DHT22;5186;59.472;18.048;2023-08-17T00:33:30;17.20;99.90
10282;DHT22;5186;59.472;18.048;2023-08-17T00:35:56;17.10;99.90
10282;DHT22;5186;59.472;18.048;2023-08-17T00:38:22;17.10;99.90
10282;DHT22;5186;59.472;18.048;2023-08-17T00:40:48;17.00;99.90
10282;DHT22;5186;59.472;18.048;2023-08-17T00:43:13;17.00;99.90
10282;DHT22;5186;59.472;18.048;2023-08-17T00:45:40;16.90;99.90
10282;DHT22;5186;59.472;18.048;2023-08-17T00:48:06;16.90;99.90
10282;DHT22;5186;59.472;18.048;2023-08-17T00:50:34;16.70;99.90
10282;DHT22;5186;59.472;18.048;2023-08-17T00:53:01;16.70;99.90
10282;DHT22;5186;59.472;18.048;2023-08-17T00:55:27;16.60;99.90
10282;DHT22;5186;59.472;18.048;2023-08-17T00:57:53;16.60;99.90
10282;DHT22;5186;59.472;18.048;2023-08-17T01:00:20;16.50;99.90
10282;DHT22;5186;59.472;18.048;2023-08-17T01:02:47;16.50;99.90
10282;DHT22;5186;59.472;18.048;2023-08-17T01:05:13;16.50;99.90
10282;DHT22;5186;59.472;18.048;2023-08-17T01:07:38;16.50;99.90
10282;DHT22;5186;59.472;18.048;2023-08-17T01:10:06;16.50;99.90
10282;DHT22;5186;59.472;18.048;2023-08-17T01:12:44;16.50;99.90
10282;DHT22;5186;59.472;18.048;2023-08-17T01:15:15;16.50;99.90
10282;DHT22;5186;59.472;18.048;2023-08-17T01:20:16;16.40;99.90
10282;DHT22;5186;59.472;18.048;2023-08-17T01:22:45;16.40;99.90
10282;DHT22;5186;59.472;18.048;2023-08-17T01:25:11;16.40;99.90
10282;DHT22;5186;59.472;18.048;2023-08-17T01:27:43;16.30;99.90
10282;DHT22;5186;59.472;18.048;2023-08-17T01:30:11;16.20;99.90
10282;DHT22;5186;59.472;18.048;2023-08-17T01:35:45;16.10;99.90
10282;DHT22;5186;59.472;18.048;2023-08-17T01:38:18;16.10;99.90
10282;DHT22;5186;59.472;18.048;2023-08-17T01:40:46;16.10;99.90
10282;DHT22;5186;59.472;18.048;2023-08-17T01:43:13;16.00;99.90
10282;DHT22;5186;59.472;18.048;2023-08-17T01:45:38;16.10;99.90
10282;DHT22;5186;59.472;18.048;2023-08-17T01:48:04;16.10;99.90
10282;DHT22;5186;59.472;18.048;2023-08-17T01:50:30;16.00;99.90
10282;DHT22;5186;59.472;18.048;2023-08-17T01:52:55;16.10;99.90
10282;DHT22;5186;59.472;18.048;2023-08-17T01:55:21;16.00;99.90
10282;DHT22;5186;59.472;18.048;2023-08-17T01:57:48;16.00;99.90
10282;DHT22;5186;59.472;18.048;2023-08-17T02:00:14;16.00;99.90
10282;DHT22;5186;59.472;18.048;2023-08-17T02:02:40;16.00;99.90
10282;DHT22;5186;59.472;18.048;2023-08-17T02:05:07;16.00;99.90
10282;DHT22;5186;59.472;18.048;2023-08-17T02:07:33;16.00;99.90
10282;DHT22;5186;59.472;18.048;2023-08-17T02:09:58;16.00;99.90
10282;DHT22;5186;59.472;18.048;2023-08-17T02:12:24;16.00;99.90
10282;DHT22;5186;59.472;18.048;2023-08-17T02:14:49;15.90;99.90
10282;DHT22;5186;59.472;18.048;2023-08-17T02:17:15;16.00;99.90
10282;DHT22;5186;59.472;18.048;2023-08-17T02:19:44;15.80;99.90
10282;DHT22;5186;59.472;18.048;2023-08-17T02:22:10;15.70;99.90
10282;DHT22;5186;59.472;18.048;2023-08-17T02:24:36;15.70;99.90
10282;DHT22;5186;59.472;18.048;2023-08-17T02:27:02;15.60;99.90
10282;DHT22;5186;59.472;18.048;2023-08-17T02:29:28;15.60;99.90
10282;DHT22;5186;59.472;18.048;2023-08-17T02:31:53;15.50;99.90
10282;DHT22;5186;59.472;18.048;2023-08-17T02:34:19;15.50;99.90
10282;DHT22;5186;59.472;18.048;2023-08-17T02:36:44;15.40;99.90
10282;DHT22;5186;59.472;18.048;2023-08-17T02:39:10;15.40;99.90
10282;DHT22;5186;59.472;18.048;2023-08-17T02:41:35;15.30;99.90
10282;DHT22;5186;59.472;18.048;2023-08-17T02:44:01;15.40;99.90
10282;DHT22;5186;59.472;18.048;2023-08-17T02:46:27;15.30;99.90
10282;DHT22;5186;59.472;18.048;2023-08-17T02:48:53;15.30;99.90
10282;DHT22;5186;59.472;18.048;2023-08-17T02:51:19;15.30;99.90
10282;DHT22;5186;59.472;18.048;2023-08-17T02:53:44;15.20;99.90
10282;DHT22;5186;59.472;18.048;2023-08-17T02:56:10;15.10;99.90
10282;DHT22;5186;59.472;18.048;2023-08-17T02:58:38;15.10;99.90
10282;DHT22;5186;59.472;18.048;2023-08-17T03:01:08;15.10;99.90
10282;DHT22;5186;59.472;18.048;2023-08-17T03:03:34;15.10;99.90
10282;DHT22;5186;59.472;18.048;2023-08-17T03:06:01;15.00;99.90
10282;DHT22;5186;59.472;18.048;2023-08-17T03:08:27;15.00;99.90
10282;DHT22;5186;59.472;18.048;2023-08-17T03:10:53;14.90;99.90
10282;DHT22;5186;59.472;18.048;2023-08-17T03:13:18;15.00;99.90
10282;DHT22;5186;59.472;18.048;2023-08-17T03:15:44;15.00;99.90
10282;DHT22;5186;59.472;18.048;2023-08-17T03:18:09;14.90;99.90
10282;DHT22;5186;59.472;18.048;2023-08-17T03:20:35;14.90;99.90
10282;DHT22;5186;59.472;18.048;2023-08-17T03:23:00;14.90;99.90
10282;DHT22;5186;59.472;18.048;2023-08-17T03:25:26;14.90;99.90
10282;DHT22;5186;59.472;18.048;2023-08-17T03:27:51;14.90;99.90
10282;DHT22;5186;59.472;18.048;2023-08-17T03:30:17;14.90;99.90
10282;DHT22;5186;59.472;18.048;2023-08-17T03:32:42;14.90;99.90
10282;DHT22;5186;59.472;18.048;2023-08-17T03:35:08;14.90;99.90
10282;DHT22;5186;59.472;18.048;2023-08-17T03:37:34;14.90;99.90
10282;DHT22;5186;59.472;18.048;2023-08-17T03:39:59;14.90;99.90
10282;DHT22;5186;59.472;18.048;2023-08-17T03:42:26;15.00;99.90
10282;DHT22;5186;59.472;18.048;2023-08-17T03:44:52;15.00;99.90
10282;DHT22;5186;59.472;18.048;2023-08-17T03:47:18;15.00;99.90
10282;DHT22;5186;59.472;18.048;2023-08-17T03:49:43;15.00;99.90
10282;DHT22;5186;59.472;18.048;2023-08-17T03:52:09;14.90;99.90
10282;DHT22;5186;59.472;18.048;2023-08-17T03:54:35;14.90;99.90
10282;DHT22;5186;59.472;18.048;2023-08-17T03:57:01;14.90;99.90
10282;DHT22;5186;59.472;18.048;2023-08-17T03:59:26;14.90;99.90
10282;DHT22;5186;59.472;18.048;2023-08-17T04:01:52;14.90;99.90
10282;DHT22;5186;59.472;18.048;2023-08-17T04:04:17;14.90;99.90
10282;DHT22;5186;59.472;18.048;2023-08-17T04:06:43;14.90;99.90
10282;DHT22;5186;59.472;18.048;2023-08-17T04:09:09;14.90;99.90
10282;DHT22;5186;59.472;18.048;2023-08-17T04:11:37;15.00;99.90
10282;DHT22;5186;59.472;18.048;2023-08-17T04:14:03;15.00;99.90
10282;DHT22;5186;59.472;18.048;2023-08-17T04:16:29;15.00;99.90
10282;DHT22;5186;59.472;18.048;2023-08-17T04:18:54;15.10;99.90
10282;DHT22;5186;59.472;18.048;2023-08-17T04:21:20;15.10;99.90
10282;DHT22;5186;59.472;18.048;2023-08-17T04:23:46;15.10;99.90
10282;DHT22;5186;59.472;18.048;2023-08-17T04:26:12;15.10;99.90
10282;DHT22;5186;59.472;18.048;2023-08-17T04:28:37;15.20;99.90
10282;DHT22;5186;59.472;18.048;2023-08-17T04:31:03;15.30;99.90
10282;DHT22;5186;59.472;18.048;2023-08-17T04:33:29;15.40;99.90
10282;DHT22;5186;59.472;18.048;2023-08-17T04:35:54;15.40;99.90
10282;DHT22;5186;59.472;18.048;2023-08-17T04:38:20;15.50;99.90
10282;DHT22;5186;59.472;18.048;2023-08-17T04:40:46;15.60;99.90
10282;DHT22;5186;59.472;18.048;2023-08-17T04:43:11;15.60;99.90
10282;DHT22;5186;59.472;18.048;2023-08-17T04:45:37;15.70;99.90
10282;DHT22;5186;59.472;18.048;2023-08-17T04:48:03;15.80;99.90
10282;DHT22;5186;59.472;18.048;2023-08-17T04:50:29;15.80;99.90
10282;DHT22;5186;59.472;18.048;2023-08-17T04:52:54;15.90;99.90
10282;DHT22;5186;59.472;18.048;2023-08-17T04:55:20;15.90;99.90
10282;DHT22;5186;59.472;18.048;2023-08-17T04:57:45;16.00;99.90
10282;DHT22;5186;59.472;18.048;2023-08-17T05:00:11;16.10;99.90
10282;DHT22;5186;59.472;18.048;2023-08-17T05:02:37;16.20;99.90
10282;DHT22;5186;59.472;18.048;2023-08-17T05:05:05;16.30;99.90
10282;DHT22;5186;59.472;18.048;2023-08-17T05:07:31;16.40;99.90
10282;DHT22;5186;59.472;18.048;2023-08-17T05:09:56;16.40;99.90
10282;DHT22;5186;59.472;18.048;2023-08-17T05:12:22;16.50;99.90
10282;DHT22;5186;59.472;18.048;2023-08-17T05:14:48;16.50;99.90
10282;DHT22;5186;59.472;18.048;2023-08-17T05:17:13;16.60;99.90
10282;DHT22;5186;59.472;18.048;2023-08-17T05:19:39;16.60;99.90
10282;DHT22;5186;59.472;18.048;2023-08-17T05:22:11;16.70;99.90
10282;DHT22;5186;59.472;18.048;2023-08-17T05:24:36;16.70;99.90
10282;DHT22;5186;59.472;18.048;2023-08-17T05:27:02;16.80;99.90
10282;DHT22;5186;59.472;18.048;2023-08-17T05:29:28;16.80;99.90
10282;DHT22;5186;59.472;18.048;2023-08-17T05:31:53;16.90;99.90
10282;DHT22;5186;59.472;18.048;2023-08-17T05:34:19;17.00;99.90
10282;DHT22;5186;59.472;18.048;2023-08-17T05:36:44;17.00;99.90
10282;DHT22;5186;59.472;18.048;2023-08-17T05:39:10;17.00;99.90
10282;DHT22;5186;59.472;18.048;2023-08-17T05:41:35;17.10;99.90
10282;DHT22;5186;59.472;18.048;2023-08-17T05:44:01;17.10;99.90
10282;DHT22;5186;59.472;18.048;2023-08-17T05:46:27;17.10;99.90
10282;DHT22;5186;59.472;18.048;2023-08-17T05:48:53;17.20;99.90
10282;DHT22;5186;59.472;18.048;2023-08-17T05:51:18;17.30;99.90
10282;DHT22;5186;59.472;18.048;2023-08-17T05:53:44;17.40;99.90
10282;DHT22;5186;59.472;18.048;2023-08-17T05:56:09;17.50;99.90
10282;DHT22;5186;59.472;18.048;2023-08-17T05:58:35;17.50;99.90
10282;DHT22;5186;59.472;18.048;2023-08-17T06:01:08;17.60;99.90
10282;DHT22;5186;59.472;18.048;2023-08-17T06:03:34;17.60;99.90
10282;DHT22;5186;59.472;18.048;2023-08-17T06:06:01;17.60;99.90
10282;DHT22;5186;59.472;18.048;2023-08-17T06:08:27;17.70;99.90
10282;DHT22;5186;59.472;18.048;2023-08-17T06:10:53;17.80;99.90
10282;DHT22;5186;59.472;18.048;2023-08-17T06:13:18;17.80;99.90
10282;DHT22;5186;59.472;18.048;2023-08-17T06:15:44;17.90;99.90
10282;DHT22;5186;59.472;18.048;2023-08-17T06:18:09;17.90;99.90
10282;DHT22;5186;59.472;18.048;2023-08-17T06:20:35;17.90;99.90
10282;DHT22;5186;59.472;18.048;2023-08-17T06:23:00;17.90;99.90
10282;DHT22;5186;59.472;18.048;2023-08-17T06:25:26;18.00;99.90
10282;DHT22;5186;59.472;18.048;2023-08-17T06:27:52;17.90;99.90
10282;DHT22;5186;59.472;18.048;2023-08-17T06:30:18;17.90;99.90
10282;DHT22;5186;59.472;18.048;2023-08-17T06:32:43;18.00;99.90
10282;DHT22;5186;59.472;18.048;2023-08-17T06:35:09;18.10;99.90
10282;DHT22;5186;59.472;18.048;2023-08-17T06:37:35;18.10;99.90
10282;DHT22;5186;59.472;18.048;2023-08-17T06:40:04;18.10;99.90
10282;DHT22;5186;59.472;18.048;2023-08-17T06:42:30;18.20;99.90
10282;DHT22;5186;59.472;18.048;2023-08-17T06:44:56;18.30;99.90
10282;DHT22;5186;59.472;18.048;2023-08-17T06:47:22;18.30;99.90
10282;DHT22;5186;59.472;18.048;2023-08-17T06:49:47;18.40;99.90
10282;DHT22;5186;59.472;18.048;2023-08-17T06:52:13;18.40;99.90
10282;DHT22;5186;59.472;18.048;2023-08-17T06:54:39;18.50;99.90
10282;DHT22;5186;59.472;18.048;2023-08-17T06:57:05;18.60;99.90
10282;DHT22;5186;59.472;18.048;2023-08-17T06:59:31;18.60;99.90
10282;DHT22;5186;59.472;18.048;2023-08-17T07:01:58;18.60;99.90
10282;DHT22;5186;59.472;18.048;2023-08-17T07:04:24;18.60;99.90
10282;DHT22;5186;59.472;18.048;2023-08-17T07:06:50;18.70;99.90
10282;DHT22;5186;59.472;18.048;2023-08-17T07:09:16;18.80;99.90
10282;DHT22;5186;59.472;18.048;2023-08-17T07:11:41;18.70;99.90
10282;DHT22;5186;59.472;18.048;2023-08-17T07:14:07;18.80;99.90
10282;DHT22;5186;59.472;18.048;2023-08-17T07:16:32;18.90;99.90
10282;DHT22;5186;59.472;18.048;2023-08-17T07:18:58;18.90;99.90
10282;DHT22;5186;59.472;18.048;2023-08-17T07:21:24;18.90;99.90
10282;DHT22;5186;59.472;18.048;2023-08-17T07:23:50;19.00;99.90
10282;DHT22;5186;59.472;18.048;2023-08-17T07:26:17;18.90;99.90
10282;DHT22;5186;59.472;18.048;2023-08-17T07:28:44;19.00;99.90
10282;DHT22;5186;59.472;18.048;2023-08-17T07:31:10;19.10;99.90
10282;DHT22;5186;59.472;18.048;2023-08-17T07:33:36;19.10;99.90
10282;DHT22;5186;59.472;18.048;2023-08-17T07:36:02;19.10;99.90
10282;DHT22;5186;59.472;18.048;2023-08-17T07:38:27;19.10;99.90
10282;DHT22;5186;59.472;18.048;2023-08-17T07:40:54;19.20;99.90
10282;DHT22;5186;59.472;18.048;2023-08-17T07:43:20;19.20;99.90
10282;DHT22;5186;59.472;18.048;2023-08-17T07:45:46;19.30;99.90
10282;DHT22;5186;59.472;18.048;2023-08-17T07:48:11;19.30;99.90
10282;DHT22;5186;59.472;18.048;2023-08-17T07:50:37;19.40;99.90
10282;DHT22;5186;59.472;18.048;2023-08-17T07:53:03;19.50;99.90
10282;DHT22;5186;59.472;18.048;2023-08-17T07:55:28;19.50;99.90
10282;DHT22;5186;59.472;18.048;2023-08-17T07:57:54;19.60;99.90
10282;DHT22;5186;59.472;18.048;2023-08-17T08:00:19;19.60;99.90
10282;DHT22;5186;59.472;18.048;2023-08-17T08:02:46;19.60;99.90
10282;DHT22;5186;59.472;18.048;2023-08-17T08:05:11;19.70;99.90
10282;DHT22;5186;59.472;18.048;2023-08-17T08:07:39;19.60;99.90
10282;DHT22;5186;59.472;18.048;2023-08-17T08:10:05;19.70;99.90
10282;DHT22;5186;59.472;18.048;2023-08-17T08:12:31;19.80;99.90
10282;DHT22;5186;59.472;18.048;2023-08-17T08:14:56;19.70;99.90
10282;DHT22;5186;59.472;18.048;2023-08-17T08:17:22;19.80;99.90
10282;DHT22;5186;59.472;18.048;2023-08-17T08:19:47;19.80;99.90
10282;DHT22;5186;59.472;18.048;2023-08-17T08:22:13;19.80;99.90
10282;DHT22;5186;59.472;18.048;2023-08-17T08:24:38;19.90;99.90
10282;DHT22;5186;59.472;18.048;2023-08-17T08:27:06;19.90;99.90
10282;DHT22;5186;59.472;18.048;2023-08-17T08:29:32;20.00;99.90
10282;DHT22;5186;59.472;18.048;2023-08-17T08:31:57;20.00;99.90
10282;DHT22;5186;59.472;18.048;2023-08-17T08:34:25;20.10;99.90
10282;DHT22;5186;59.472;18.048;2023-08-17T08:36:50;20.20;99.90
10282;DHT22;5186;59.472;18.048;2023-08-17T08:39:16;20.20;99.90
10282;DHT22;5186;59.472;18.048;2023-08-17T08:41:41;20.20;99.90
10282;DHT22;5186;59.472;18.048;2023-08-17T08:44:07;20.20;99.90
10282;DHT22;5186;59.472;18.048;2023-08-17T08:46:33;20.30;99.90
10282;DHT22;5186;59.472;18.048;2023-08-17T08:49:03;20.30;99.90
10282;DHT22;5186;59.472;18.048;2023-08-17T08:51:32;20.30;99.90
10282;DHT22;5186;59.472;18.048;2023-08-17T08:54:02;20.30;99.90
10282;DHT22;5186;59.472;18.048;2023-08-17T08:56:35;20.40;99.90
10282;DHT22;5186;59.472;18.048;2023-08-17T08:59:04;20.40;99.90
10282;DHT22;5186;59.472;18.048;2023-08-17T09:01:32;20.40;99.90
10282;DHT22;5186;59.472;18.048;2023-08-17T09:03:59;20.40;99.90
10282;DHT22;5186;59.472;18.048;2023-08-17T09:06:27;20.50;99.90
10282;DHT22;5186;59.472;18.048;2023-08-17T09:08:52;20.40;99.90
10282;DHT22;5186;59.472;18.048;2023-08-17T09:11:18;20.40;99.90
10282;DHT22;5186;59.472;18.048;2023-08-17T09:13:44;20.50;99.90
10282;DHT22;5186;59.472;18.048;2023-08-17T09:16:10;20.50;99.90
10282;DHT22;5186;59.472;18.048;2023-08-17T09:18:35;20.50;99.90
10282;DHT22;5186;59.472;18.048;2023-08-17T09:21:01;20.60;99.90
10282;DHT22;5186;59.472;18.048;2023-08-17T09:23:27;20.60;99.90
10282;DHT22;5186;59.472;18.048;2023-08-17T09:25:53;20.60;99.90
10282;DHT22;5186;59.472;18.048;2023-08-17T09:28:23;20.60;99.90
10282;DHT22;5186;59.472;18.048;2023-08-17T09:31:01;20.70;99.90
10282;DHT22;5186;59.472;18.048;2023-08-17T09:33:30;20.80;99.90
10282;DHT22;5186;59.472;18.048;2023-08-17T09:35:57;20.90;99.90
10282;DHT22;5186;59.472;18.048;2023-08-17T09:38:22;20.90;99.90
10282;DHT22;5186;59.472;18.048;2023-08-17T09:40:48;20.90;99.90
10282;DHT22;5186;59.472;18.048;2023-08-17T09:43:15;20.90;99.90
10282;DHT22;5186;59.472;18.048;2023-08-17T09:45:42;21.00;99.90
10282;DHT22;5186;59.472;18.048;2023-08-17T09:48:09;21.00;99.90
10282;DHT22;5186;59.472;18.048;2023-08-17T09:50:35;21.00;99.90
10282;DHT22;5186;59.472;18.048;2023-08-17T09:53:02;21.00;99.90
10282;DHT22;5186;59.472;18.048;2023-08-17T09:55:30;20.90;99.90
10282;DHT22;5186;59.472;18.048;2023-08-17T09:57:58;21.00;99.90
10282;DHT22;5186;59.472;18.048;2023-08-17T10:00:25;21.00;99.90
10282;DHT22;5186;59.472;18.048;2023-08-17T10:02:53;21.10;99.90
10282;DHT22;5186;59.472;18.048;2023-08-17T10:05:19;21.10;99.90
10282;DHT22;5186;59.472;18.048;2023-08-17T10:07:53;21.10;99.90
10282;DHT22;5186;59.472;18.048;2023-08-17T10:10:24;21.10;99.90
10282;DHT22;5186;59.472;18.048;2023-08-17T10:13:02;21.20;99.90
10282;DHT22;5186;59.472;18.048;2023-08-17T10:15:34;21.20;99.90
10282;DHT22;5186;59.472;18.048;2023-08-17T10:18:13;21.20;99.90
10282;DHT22;5186;59.472;18.048;2023-08-17T10:20:43;21.30;99.90
10282;DHT22;5186;59.472;18.048;2023-08-17T10:23:15;21.30;99.90
10282;DHT22;5186;59.472;18.048;2023-08-17T10:25:42;21.40;99.90
10282;DHT22;5186;59.472;18.048;2023-08-17T10:28:09;21.40;99.90
10282;DHT22;5186;59.472;18.048;2023-08-17T10:30:36;21.40;99.90
10282;DHT22;5186;59.472;18.048;2023-08-17T10:33:02;21.50;99.90
10282;DHT22;5186;59.472;18.048;2023-08-17T10:35:30;21.50;99.90
10282;DHT22;5186;59.472;18.048;2023-08-17T10:37:56;21.60;99.90
10282;DHT22;5186;59.472;18.048;2023-08-17T10:40:42;21.50;99.90
10282;DHT22;5186;59.472;18.048;2023-08-17T10:43:08;21.60;99.90
10282;DHT22;5186;59.472;18.048;2023-08-17T10:45:35;21.60;99.90
10282;DHT22;5186;59.472;18.048;2023-08-17T10:50:38;21.70;99.90
10282;DHT22;5186;59.472;18.048;2023-08-17T10:53:08;21.70;99.90
10282;DHT22;5186;59.472;18.048;2023-08-17T10:55:41;21.80;99.90
10282;DHT22;5186;59.472;18.048;2023-08-17T10:58:07;21.80;99.90
10282;DHT22;5186;59.472;18.048;2023-08-17T11:00:39;21.80;99.90
10282;DHT22;5186;59.472;18.048;2023-08-17T11:03:09;21.90;99.90
10282;DHT22;5186;59.472;18.048;2023-08-17T11:08:32;22.10;99.90
10282;DHT22;5186;59.472;18.048;2023-08-17T11:11:11;22.10;99.90
10282;DHT22;5186;59.472;18.048;2023-08-17T11:13:44;22.00;99.90
10282;DHT22;5186;59.472;18.048;2023-08-17T11:16:12;22.00;99.90
10282;DHT22;5186;59.472;18.048;2023-08-17T11:18:38;21.90;99.90
10282;DHT22;5186;59.472;18.048;2023-08-17T11:21:05;21.90;99.90
10282;DHT22;5186;59.472;18.048;2023-08-17T11:23:32;21.90;99.90
10282;DHT22;5186;59.472;18.048;2023-08-17T11:25:59;21.90;99.90
10282;DHT22;5186;59.472;18.048;2023-08-17T11:28:25;21.90;99.90
10282;DHT22;5186;59.472;18.048;2023-08-17T11:30:57;21.90;99.90
10282;DHT22;5186;59.472;18.048;2023-08-17T11:33:28;21.90;99.90
10282;DHT22;5186;59.472;18.048;2023-08-17T11:35:55;22.00;99.90
10282;DHT22;5186;59.472;18.048;2023-08-17T11:38:20;22.10;99.90
10282;DHT22;5186;59.472;18.048;2023-08-17T11:40:46;22.10;99.90
10282;DHT22;5186;59.472;18.048;2023-08-17T11:43:11;22.10;99.90
10282;DHT22;5186;59.472;18.048;2023-08-17T11:45:37;22.10;99.90
10282;DHT22;5186;59.472;18.048;2023-08-17T11:48:03;22.20;99.90
10282;DHT22;5186;59.472;18.048;2023-08-17T11:50:29;22.20;99.90
10282;DHT22;5186;59.472;18.048;2023-08-17T11:52:54;22.20;99.90
10282;DHT22;5186;59.472;18.048;2023-08-17T11:55:20;22.20;99.90
10282;DHT22;5186;59.472;18.048;2023-08-17T11:57:46;22.30;99.90
10282;DHT22;5186;59.472;18.048;2023-08-17T12:00:18;22.30;99.90
10282;DHT22;5186;59.472;18.048;2023-08-17T12:02:47;22.30;99.90
10282;DHT22;5186;59.472;18.048;2023-08-17T12:05:13;22.30;99.90
10282;DHT22;5186;59.472;18.048;2023-08-17T12:07:43;22.30;99.90
10282;DHT22;5186;59.472;18.048;2023-08-17T12:10:10;22.30;99.90
10282;DHT22;5186;59.472;18.048;2023-08-17T12:12:37;22.30;99.90
10282;DHT22;5186;59.472;18.048;2023-08-17T12:15:04;22.40;99.90
10282;DHT22;5186;59.472;18.048;2023-08-17T12:17:30;22.50;99.90
10282;DHT22;5186;59.472;18.048;2023-08-17T12:19:55;22.50;99.90
10282;DHT22;5186;59.472;18.048;2023-08-17T12:22:24;22.60;99.90
10282;DHT22;5186;59.472;18.048;2023-08-17T12:24:51;22.70;99.90
10282;DHT22;5186;59.472;18.048;2023-08-17T12:27:17;22.70;99.90
10282;DHT22;5186;59.472;18.048;2023-08-17T12:29:50;22.80;99.90
10282;DHT22;5186;59.472;18.048;2023-08-17T12:32:17;22.80;99.90
10282;DHT22;5186;59.472;18.048;2023-08-17T12:34:43;22.80;99.90
10282;DHT22;5186;59.472;18.048;2023-08-17T12:37:10;22.80;99.90
10282;DHT22;5186;59.472;18.048;2023-08-17T12:39:36;22.70;99.90
10282;DHT22;5186;59.472;18.048;2023-08-17T12:42:02;22.80;99.90
10282;DHT22;5186;59.472;18.048;2023-08-17T12:44:28;22.80;99.90
10282;DHT22;5186;59.472;18.048;2023-08-17T12:46:53;22.90;99.90
10282;DHT22;5186;59.472;18.048;2023-08-17T12:49:19;22.80;99.90
10282;DHT22;5186;59.472;18.048;2023-08-17T12:51:44;22.90;99.90
10282;DHT22;5186;59.472;18.048;2023-08-17T12:54:10;23.00;99.90
10282;DHT22;5186;59.472;18.048;2023-08-17T12:56:35;23.10;99.90
10282;DHT22;5186;59.472;18.048;2023-08-17T12:59:01;23.20;99.90
10282;DHT22;5186;59.472;18.048;2023-08-17T13:01:26;23.20;99.90
10282;DHT22;5186;59.472;18.048;2023-08-17T13:03:52;23.10;99.90
10282;DHT22;5186;59.472;18.048;2023-08-17T13:06:17;23.10;99.90
10282;DHT22;5186;59.472;18.048;2023-08-17T13:08:43;23.10;99.90
10282;DHT22;5186;59.472;18.048;2023-08-17T13:11:10;23.00;99.90
10282;DHT22;5186;59.472;18.048;2023-08-17T13:13:36;23.00;99.90
10282;DHT22;5186;59.472;18.048;2023-08-17T13:16:01;23.00;99.90
10282;DHT22;5186;59.472;18.048;2023-08-17T13:18:27;23.00;99.90
10282;DHT22;5186;59.472;18.048;2023-08-17T13:20:54;22.90;99.90
10282;DHT22;5186;59.472;18.048;2023-08-17T13:23:19;23.00;99.90
10282;DHT22;5186;59.472;18.048;2023-08-17T13:25:45;23.00;99.90
10282;DHT22;5186;59.472;18.048;2023-08-17T13:28:11;23.00;99.90
10282;DHT22;5186;59.472;18.048;2023-08-17T13:30:38;23.10;99.90
10282;DHT22;5186;59.472;18.048;2023-08-17T13:33:04;23.20;99.90
10282;DHT22;5186;59.472;18.048;2023-08-17T13:35:32;23.30;99.90
10282;DHT22;5186;59.472;18.048;2023-08-17T13:37:57;23.50;99.90
10282;DHT22;5186;59.472;18.048;2023-08-17T13:40:23;23.50;99.90
10282;DHT22;5186;59.472;18.048;2023-08-17T13:42:49;23.50;99.90
10282;DHT22;5186;59.472;18.048;2023-08-17T13:45:14;23.50;99.90
10282;DHT22;5186;59.472;18.048;2023-08-17T13:47:40;23.50;99.90
10282;DHT22;5186;59.472;18.048;2023-08-17T13:50:06;23.50;99.90
10282;DHT22;5186;59.472;18.048;2023-08-17T13:52:32;23.50;99.90
10282;DHT22;5186;59.472;18.048;2023-08-17T13:54:58;23.50;99.90
10282;DHT22;5186;59.472;18.048;2023-08-17T13:57:23;23.50;99.90
10282;DHT22;5186;59.472;18.048;2023-08-17T13:59:49;23.50;99.90
10282;DHT22;5186;59.472;18.048;2023-08-17T14:02:14;23.40;99.90
10282;DHT22;5186;59.472;18.048;2023-08-17T14:04:40;23.50;99.90
10282;DHT22;5186;59.472;18.048;2023-08-17T14:07:05;23.50;99.90
10282;DHT22;5186;59.472;18.048;2023-08-17T14:09:31;23.60;99.90
10282;DHT22;5186;59.472;18.048;2023-08-17T14:11:57;23.60;99.90
10282;DHT22;5186;59.472;18.048;2023-08-17T14:14:22;23.60;99.90
10282;DHT22;5186;59.472;18.048;2023-08-17T14:16:48;23.60;99.90
10282;DHT22;5186;59.472;18.048;2023-08-17T14:19:13;23.60;99.90
10282;DHT22;5186;59.472;18.048;2023-08-17T14:21:39;23.70;99.90
10282;DHT22;5186;59.472;18.048;2023-08-17T14:24:05;23.70;99.90
10282;DHT22;5186;59.472;18.048;2023-08-17T14:26:32;23.70;99.90
10282;DHT22;5186;59.472;18.048;2023-08-17T14:28:57;23.70;99.90
10282;DHT22;5186;59.472;18.048;2023-08-17T14:31:23;23.70;99.90
10282;DHT22;5186;59.472;18.048;2023-08-17T14:33:48;23.70;99.90
10282;DHT22;5186;59.472;18.048;2023-08-17T14:36:15;23.60;99.90
10282;DHT22;5186;59.472;18.048;2023-08-17T14:38:40;23.60;99.90
10282;DHT22;5186;59.472;18.048;2023-08-17T14:41:07;23.60;99.90
10282;DHT22;5186;59.472;18.048;2023-08-17T14:43:33;23.60;99.90
10282;DHT22;5186;59.472;18.048;2023-08-17T14:45:59;23.60;99.90
10282;DHT22;5186;59.472;18.048;2023-08-17T14:48:25;23.60;99.90
10282;DHT22;5186;59.472;18.048;2023-08-17T14:50:51;23.60;99.90
10282;DHT22;5186;59.472;18.048;2023-08-17T14:53:16;23.70;99.90
10282;DHT22;5186;59.472;18.048;2023-08-17T14:55:42;23.70;99.90
10282;DHT22;5186;59.472;18.048;2023-08-17T14:58:07;23.80;99.90
10282;DHT22;5186;59.472;18.048;2023-08-17T15:00:33;23.80;99.90
10282;DHT22;5186;59.472;18.048;2023-08-17T15:02:59;23.80;99.90
10282;DHT22;5186;59.472;18.048;2023-08-17T15:05:25;23.90;99.90
10282;DHT22;5186;59.472;18.048;2023-08-17T15:07:51;23.80;99.90
10282;DHT22;5186;59.472;18.048;2023-08-17T15:10:16;23.80;99.90
10282;DHT22;5186;59.472;18.048;2023-08-17T15:12:42;23.80;99.90
10282;DHT22;5186;59.472;18.048;2023-08-17T15:15:08;23.70;99.90
10282;DHT22;5186;59.472;18.048;2023-08-17T15:17:34;23.60;99.90
10282;DHT22;5186;59.472;18.048;2023-08-17T15:20:00;23.60;99.90
10282;DHT22;5186;59.472;18.048;2023-08-17T15:22:26;23.50;99.90
10282;DHT22;5186;59.472;18.048;2023-08-17T15:24:51;23.50;99.90
10282;DHT22;5186;59.472;18.048;2023-08-17T15:27:17;23.40;99.90
10282;DHT22;5186;59.472;18.048;2023-08-17T15:29:42;23.40;99.90
10282;DHT22;5186;59.472;18.048;2023-08-17T15:32:08;23.40;99.90
10282;DHT22;5186;59.472;18.048;2023-08-17T15:34:35;23.30;99.90
10282;DHT22;5186;59.472;18.048;2023-08-17T15:37:00;23.30;99.90